createdAt,value
2017-07-12T00:01:08.704Z,0
2017-07-12T00:02:17.982Z,0
2017-07-12T00:03:26.625Z,0
2017-07-12T00:04:35.587Z,0
2017-07-12T00:05:44.545Z,0
2017-07-12T00:06:53.820Z,0
2017-07-12T00:08:03.408Z,0
2017-07-12T00:09:12.059Z,0
2017-07-12T00:10:21.088Z,0
2017-07-12T00:11:29.786Z,0
2017-07-12T00:12:39.056Z,0
2017-07-12T00:13:48.006Z,0
2017-07-12T00:14:56.964Z,0
2017-07-12T00:16:05.608Z,0
2017-07-12T00:17:14.569Z,0
2017-07-12T00:18:23.849Z,0
2017-07-12T00:19:32.487Z,0
2017-07-12T00:20:41.765Z,0
2017-07-12T00:21:51.062Z,0
2017-07-12T00:23:00.663Z,0
2017-07-12T00:24:09.304Z,0
2017-07-12T00:25:18.258Z,0
2017-07-12T00:26:27.848Z,0
2017-07-12T00:27:37.493Z,0
2017-07-12T00:28:46.131Z,0
2017-07-12T00:29:55.411Z,0
2017-07-12T00:31:04.690Z,0
2017-07-12T00:32:13.971Z,0
2017-07-12T00:33:23.243Z,0
2017-07-12T00:34:31.886Z,0
2017-07-12T00:35:40.857Z,0
2017-07-12T00:36:50.464Z,0
2017-07-12T00:37:59.428Z,0
2017-07-12T00:39:08.702Z,0
2017-07-12T00:40:17.348Z,0
2017-07-12T00:41:25.988Z,0
2017-07-12T00:42:34.630Z,0
2017-07-12T00:43:43.896Z,0
2017-07-12T00:44:52.862Z,0
2017-07-12T00:46:02.153Z,0
2017-07-12T00:47:11.104Z,0
2017-07-12T00:48:20.063Z,0
2017-07-12T00:49:29.962Z,0
2017-07-12T00:50:38.919Z,0
2017-07-12T00:51:48.187Z,0
2017-07-12T00:52:57.773Z,0
2017-07-12T00:54:07.055Z,0
2017-07-12T00:55:16.676Z,0
2017-07-12T00:56:25.317Z,0
2017-07-12T00:57:34.907Z,0
2017-07-12T00:58:44.175Z,0
2017-07-12T00:59:53.131Z,0
2017-07-12T01:01:02.722Z,0
2017-07-12T01:02:11.682Z,0
2017-07-12T01:03:20.959Z,0
2017-07-12T01:04:30.548Z,0
2017-07-12T01:05:39.201Z,0
2017-07-12T01:06:48.495Z,0
2017-07-12T01:07:57.139Z,0
2017-07-12T01:09:06.101Z,0
2017-07-12T01:10:15.377Z,0
2017-07-12T01:11:24.669Z,0
2017-07-12T01:12:33.621Z,0
2017-07-12T01:13:42.596Z,0
2017-07-12T01:14:51.878Z,0
2017-07-12T01:16:01.165Z,0
2017-07-12T01:17:10.437Z,0
2017-07-12T01:18:19.405Z,0
2017-07-12T01:19:28.372Z,0
2017-07-12T01:20:37.647Z,0
2017-07-12T01:21:46.603Z,0
2017-07-12T01:22:55.877Z,0
2017-07-12T01:24:04.532Z,0
2017-07-12T01:25:13.799Z,0
2017-07-12T01:26:22.760Z,0
2017-07-12T01:27:31.713Z,0
2017-07-12T01:28:41.005Z,0
2017-07-12T01:29:50.297Z,0
2017-07-12T01:30:59.894Z,0
2017-07-12T01:32:08.541Z,0
2017-07-12T01:33:17.809Z,0
2017-07-12T01:34:27.085Z,0
2017-07-12T01:35:36.048Z,0
2017-07-12T01:36:44.701Z,0
2017-07-12T01:37:53.666Z,0
2017-07-12T01:39:02.614Z,0
2017-07-12T01:40:11.275Z,0
2017-07-12T01:41:20.876Z,0
2017-07-12T01:42:30.162Z,0
2017-07-12T01:43:39.195Z,0
2017-07-12T01:44:48.169Z,0
2017-07-12T01:45:57.129Z,0
2017-07-12T01:47:06.098Z,0
2017-07-12T01:48:15.691Z,0
2017-07-12T01:49:25.309Z,0
2017-07-12T01:50:34.259Z,0
2017-07-12T01:51:43.539Z,0
2017-07-12T01:52:52.827Z,0
2017-07-12T01:54:02.104Z,0
2017-07-12T01:55:10.768Z,0
2017-07-12T01:56:19.740Z,0
2017-07-12T01:57:29.327Z,0
2017-07-12T01:58:38.613Z,0
2017-07-12T01:59:47.961Z,0
2017-07-12T02:00:57.245Z,0
2017-07-12T02:02:06.837Z,0
2017-07-12T02:03:15.480Z,0
2017-07-12T02:04:24.442Z,0
2017-07-12T02:05:34.030Z,0
2017-07-12T02:06:43.301Z,0
2017-07-12T02:07:52.907Z,0
2017-07-12T02:09:01.559Z,0
2017-07-12T02:10:10.208Z,0
2017-07-12T02:11:19.191Z,0
2017-07-12T02:12:27.843Z,0
2017-07-12T02:13:37.115Z,0
2017-07-12T02:14:46.383Z,0
2017-07-12T02:15:55.644Z,0
2017-07-12T02:17:04.295Z,0
2017-07-12T02:18:13.578Z,0
2017-07-12T02:19:23.182Z,0
2017-07-12T02:20:32.132Z,0
2017-07-12T02:21:41.727Z,0
2017-07-12T02:22:50.373Z,0
2017-07-12T02:23:59.329Z,0
2017-07-12T02:25:07.962Z,0
2017-07-12T02:26:16.953Z,0
2017-07-12T02:27:26.856Z,0
2017-07-12T02:28:35.810Z,0
2017-07-12T02:29:44.781Z,0
2017-07-12T02:30:53.744Z,0
2017-07-12T02:32:03.014Z,0
2017-07-12T02:33:11.656Z,0
2017-07-12T02:34:20.927Z,0
2017-07-12T02:35:29.892Z,0
2017-07-12T02:36:38.925Z,0
2017-07-12T02:37:48.192Z,0
2017-07-12T02:38:57.781Z,0
2017-07-12T02:40:07.049Z,0
2017-07-12T02:41:16.038Z,0
2017-07-12T02:42:25.318Z,0
2017-07-12T02:43:34.277Z,0
2017-07-12T02:44:43.867Z,0
2017-07-12T02:45:53.144Z,0
2017-07-12T02:47:02.105Z,0
2017-07-12T02:48:11.063Z,0
2017-07-12T02:49:19.702Z,0
2017-07-12T02:50:28.987Z,0
2017-07-12T02:51:38.254Z,0
2017-07-12T02:52:47.537Z,0
2017-07-12T02:53:56.573Z,0
2017-07-12T02:55:05.858Z,0
2017-07-12T02:56:15.443Z,0
2017-07-12T02:57:24.083Z,0
2017-07-12T02:58:33.352Z,0
2017-07-12T02:59:42.303Z,0
2017-07-12T03:00:51.588Z,0
2017-07-12T03:02:00.869Z,0
2017-07-12T03:03:09.844Z,0
2017-07-12T03:04:18.827Z,0
2017-07-12T03:05:28.421Z,0
2017-07-12T03:06:38.000Z,0
2017-07-12T03:07:46.659Z,0
2017-07-12T03:08:56.267Z,0
2017-07-12T03:10:05.547Z,0
2017-07-12T03:11:14.509Z,0
2017-07-12T03:12:23.797Z,0
2017-07-12T03:13:33.072Z,0
2017-07-12T03:14:42.029Z,0
2017-07-12T03:15:51.305Z,0
2017-07-12T03:16:59.950Z,0
2017-07-12T03:18:08.592Z,0
2017-07-12T03:19:17.868Z,0
2017-07-12T03:20:26.836Z,0
2017-07-12T03:21:36.106Z,0
2017-07-12T03:22:45.073Z,4
2017-07-12T03:23:53.749Z,4
2017-07-12T03:25:02.704Z,4
2017-07-12T03:26:11.999Z,4
2017-07-12T03:27:20.959Z,4
2017-07-12T03:28:30.249Z,4
2017-07-12T03:29:38.894Z,8
2017-07-12T03:30:47.532Z,4
2017-07-12T03:31:56.492Z,4
2017-07-12T03:33:05.138Z,4
2017-07-12T03:34:14.562Z,4
2017-07-12T03:35:23.848Z,4
2017-07-12T03:36:34.072Z,8
2017-07-12T03:37:43.347Z,8
2017-07-12T03:38:51.999Z,8
2017-07-12T03:40:00.647Z,8
2017-07-12T03:41:09.605Z,8
2017-07-12T03:42:18.253Z,8
2017-07-12T03:43:26.904Z,12
2017-07-12T03:44:36.178Z,12
2017-07-12T03:45:45.763Z,16
2017-07-12T03:46:55.372Z,12
2017-07-12T03:48:04.011Z,20
2017-07-12T03:49:12.979Z,16
2017-07-12T03:50:22.255Z,16
2017-07-12T03:51:30.890Z,20
2017-07-12T03:52:39.589Z,20
2017-07-12T03:53:48.493Z,24
2017-07-12T03:54:57.134Z,28
2017-07-12T03:56:06.412Z,24
2017-07-12T03:57:15.372Z,28
2017-07-12T03:58:24.334Z,24
2017-07-12T03:59:32.980Z,24
2017-07-12T04:00:41.937Z,24
2017-07-12T04:01:50.623Z,28
2017-07-12T04:02:59.279Z,24
2017-07-12T04:04:08.548Z,20
2017-07-12T04:05:17.818Z,20
2017-07-12T04:06:26.492Z,20
2017-07-12T04:07:35.446Z,20
2017-07-12T04:08:44.406Z,16
2017-07-12T04:09:53.727Z,20
2017-07-12T04:11:02.314Z,20
2017-07-12T04:12:11.012Z,16
2017-07-12T04:13:19.646Z,20
2017-07-12T04:14:28.634Z,20
2017-07-12T04:15:37.287Z,24
2017-07-12T04:16:46.264Z,28
2017-07-12T04:17:54.918Z,32
2017-07-12T04:19:03.893Z,36
2017-07-12T04:20:12.902Z,40
2017-07-12T04:21:21.549Z,48
2017-07-12T04:22:30.193Z,60
2017-07-12T04:23:38.858Z,68
2017-07-12T04:24:47.818Z,72
2017-07-12T04:25:56.790Z,72
2017-07-12T04:27:06.077Z,80
2017-07-12T04:28:15.026Z,84
2017-07-12T04:29:24.014Z,92
2017-07-12T04:30:32.983Z,108
2017-07-12T04:31:41.958Z,128
2017-07-12T04:32:50.945Z,140
2017-07-12T04:33:59.974Z,148
2017-07-12T04:35:08.647Z,148
2017-07-12T04:36:17.622Z,140
2017-07-12T04:37:26.260Z,128
2017-07-12T04:38:35.239Z,112
2017-07-12T04:39:44.226Z,104
2017-07-12T04:40:53.204Z,104
2017-07-12T04:42:02.160Z,92
2017-07-12T04:43:10.804Z,80
2017-07-12T04:44:20.094Z,76
2017-07-12T04:45:29.373Z,72
2017-07-12T04:46:38.330Z,64
2017-07-12T04:47:47.965Z,60
2017-07-12T04:48:56.930Z,60
2017-07-12T04:50:05.599Z,60
2017-07-12T04:51:14.621Z,68
2017-07-12T04:52:23.283Z,80
2017-07-12T04:53:32.878Z,80
2017-07-12T04:54:41.519Z,76
2017-07-12T04:55:50.479Z,68
2017-07-12T04:56:59.119Z,60
2017-07-12T04:58:08.398Z,44
2017-07-12T04:59:17.703Z,40
2017-07-12T05:00:26.658Z,40
2017-07-12T05:01:35.635Z,48
2017-07-12T05:02:44.277Z,60
2017-07-12T05:03:53.553Z,64
2017-07-12T05:05:02.513Z,60
2017-07-12T05:06:11.804Z,60
2017-07-12T05:07:21.406Z,84
2017-07-12T05:08:30.684Z,108
2017-07-12T05:09:39.697Z,112
2017-07-12T05:10:48.679Z,112
2017-07-12T05:11:57.638Z,108
2017-07-12T05:13:06.604Z,100
2017-07-12T05:14:15.577Z,72
2017-07-12T05:15:25.173Z,76
2017-07-12T05:16:34.134Z,88
2017-07-12T05:17:43.096Z,128
2017-07-12T05:18:52.066Z,144
2017-07-12T05:20:00.713Z,136
2017-07-12T05:21:09.365Z,136
2017-07-12T05:22:18.319Z,200
2017-07-12T05:23:27.286Z,308
2017-07-12T05:24:36.242Z,360
2017-07-12T05:25:44.913Z,344
2017-07-12T05:26:54.814Z,444
2017-07-12T05:28:04.089Z,484
2017-07-12T05:29:13.364Z,380
2017-07-12T05:30:22.021Z,360
2017-07-12T05:31:30.975Z,332
2017-07-12T05:32:39.938Z,412
2017-07-12T05:33:49.201Z,436
2017-07-12T05:34:58.153Z,408
2017-07-12T05:36:06.824Z,348
2017-07-12T05:37:15.770Z,292
2017-07-12T05:38:25.680Z,208
2017-07-12T05:39:34.947Z,156
2017-07-12T05:40:44.054Z,144
2017-07-12T05:41:53.647Z,144
2017-07-12T05:43:02.922Z,168
2017-07-12T05:44:12.203Z,200
2017-07-12T05:45:21.166Z,188
2017-07-12T05:46:30.142Z,212
2017-07-12T05:47:40.036Z,252
2017-07-12T05:48:48.994Z,308
2017-07-12T05:49:57.650Z,384
2017-07-12T05:51:06.953Z,432
2017-07-12T05:52:16.207Z,500
2017-07-12T05:53:25.492Z,596
2017-07-12T05:54:34.825Z,656
2017-07-12T05:55:43.527Z,680
2017-07-12T05:56:53.110Z,620
2017-07-12T05:58:02.077Z,520
2017-07-12T05:59:11.037Z,456
2017-07-12T06:00:20.305Z,476
2017-07-12T06:01:29.588Z,464
2017-07-12T06:02:38.230Z,448
2017-07-12T06:03:46.871Z,464
2017-07-12T06:04:56.146Z,492
2017-07-12T06:06:04.857Z,568
2017-07-12T06:07:14.133Z,580
2017-07-12T06:08:23.119Z,532
2017-07-12T06:09:31.774Z,564
2017-07-12T06:10:40.744Z,596
2017-07-12T06:11:50.332Z,668
2017-07-12T06:12:59.291Z,780
2017-07-12T06:14:08.560Z,848
2017-07-12T06:15:17.839Z,980
2017-07-12T06:16:26.478Z,984
2017-07-12T06:17:35.437Z,972
2017-07-12T06:18:44.713Z,1028
2017-07-12T06:19:53.684Z,1100
2017-07-12T06:21:02.341Z,1144
2017-07-12T06:22:11.314Z,1148
2017-07-12T06:23:19.967Z,1176
2017-07-12T06:24:29.555Z,1120
2017-07-12T06:25:38.831Z,1120
2017-07-12T06:26:48.104Z,1116
2017-07-12T06:27:57.068Z,1304
2017-07-12T06:29:07.292Z,1536
2017-07-12T06:30:16.269Z,1616
2017-07-12T06:31:25.258Z,1548
2017-07-12T06:32:34.859Z,1540
2017-07-12T06:33:44.486Z,1660
2017-07-12T06:34:53.449Z,1772
2017-07-12T06:36:02.110Z,1744
2017-07-12T06:37:10.761Z,1480
2017-07-12T06:38:19.725Z,1448
2017-07-12T06:39:28.685Z,1444
2017-07-12T06:40:38.289Z,1476
2017-07-12T06:41:47.263Z,1932
2017-07-12T06:42:56.537Z,2344
2017-07-12T06:44:05.196Z,2240
2017-07-12T06:45:14.158Z,1980
2017-07-12T06:46:23.131Z,1880
2017-07-12T06:47:32.109Z,1884
2017-07-12T06:48:41.399Z,1864
2017-07-12T06:49:50.673Z,1944
2017-07-12T06:50:59.633Z,1684
2017-07-12T06:52:08.618Z,1512
2017-07-12T06:53:17.270Z,1260
2017-07-12T06:54:26.237Z,1248
2017-07-12T06:55:35.819Z,1396
2017-07-12T06:56:45.097Z,1324
2017-07-12T06:57:54.697Z,1372
2017-07-12T06:59:03.679Z,1256
2017-07-12T07:00:12.967Z,1164
2017-07-12T07:01:22.232Z,1052
2017-07-12T07:02:31.518Z,992
2017-07-12T07:03:40.487Z,1060
2017-07-12T07:04:49.790Z,1092
2017-07-12T07:05:59.372Z,1048
2017-07-12T07:07:08.342Z,956
2017-07-12T07:08:16.993Z,940
2017-07-12T07:09:25.648Z,896
2017-07-12T07:10:34.622Z,880
2017-07-12T07:11:43.592Z,1120
2017-07-12T07:12:52.248Z,1372
2017-07-12T07:14:01.595Z,1504
2017-07-12T07:15:10.880Z,1532
2017-07-12T07:16:20.163Z,1556
2017-07-12T07:17:28.845Z,1520
2017-07-12T07:18:37.816Z,1264
2017-07-12T07:19:47.106Z,840
2017-07-12T07:20:56.073Z,612
2017-07-12T07:22:05.049Z,528
2017-07-12T07:23:14.004Z,568
2017-07-12T07:24:23.014Z,760
2017-07-12T07:25:32.001Z,960
2017-07-12T07:26:40.661Z,1012
2017-07-12T07:27:49.934Z,1120
2017-07-12T07:28:59.226Z,1316
2017-07-12T07:30:07.888Z,1504
2017-07-12T07:31:17.176Z,1384
2017-07-12T07:32:26.787Z,1200
2017-07-12T07:33:36.083Z,884
2017-07-12T07:34:45.083Z,824
2017-07-12T07:35:54.055Z,888
2017-07-12T07:37:02.709Z,1008
2017-07-12T07:38:11.354Z,1124
2017-07-12T07:39:20.970Z,1268
2017-07-12T07:40:29.940Z,1108
2017-07-12T07:41:38.898Z,1212
2017-07-12T07:42:47.556Z,1120
2017-07-12T07:43:56.218Z,1064
2017-07-12T07:45:05.509Z,1152
2017-07-12T07:46:14.489Z,1184
2017-07-12T07:47:23.476Z,1028
2017-07-12T07:48:32.749Z,1088
2017-07-12T07:49:41.741Z,1076
2017-07-12T07:50:50.718Z,1188
2017-07-12T07:52:00.002Z,1156
2017-07-12T07:53:08.970Z,1124
2017-07-12T07:54:18.249Z,1256
2017-07-12T07:55:27.528Z,1368
2017-07-12T07:56:36.180Z,1324
2017-07-12T07:57:45.154Z,1340
2017-07-12T07:58:54.114Z,1352
2017-07-12T08:00:02.770Z,1428
2017-07-12T08:01:11.428Z,1764
2017-07-12T08:02:20.401Z,1932
2017-07-12T08:03:29.442Z,1928
2017-07-12T08:04:38.402Z,1788
2017-07-12T08:05:47.053Z,1624
2017-07-12T08:06:56.646Z,1352
2017-07-12T08:08:05.295Z,1188
2017-07-12T08:09:14.258Z,1100
2017-07-12T08:10:23.556Z,960
2017-07-12T08:11:32.208Z,1252
2017-07-12T08:12:41.811Z,1404
2017-07-12T08:13:51.414Z,1476
2017-07-12T08:15:00.684Z,1304
2017-07-12T08:16:09.961Z,992
2017-07-12T08:17:19.241Z,1016
2017-07-12T08:18:28.532Z,1136
2017-07-12T08:19:37.820Z,1500
2017-07-12T08:20:47.114Z,1532
2017-07-12T08:21:55.774Z,1716
2017-07-12T08:23:04.740Z,1676
2017-07-12T08:24:14.023Z,1492
2017-07-12T08:25:23.308Z,1520
2017-07-12T08:26:33.219Z,1456
2017-07-12T08:27:42.821Z,1392
2017-07-12T08:28:51.799Z,1324
2017-07-12T08:30:00.758Z,1360
2017-07-12T08:31:09.723Z,1316
2017-07-12T08:32:18.383Z,1360
2017-07-12T08:33:27.052Z,1136
2017-07-12T08:34:35.719Z,824
2017-07-12T08:35:45.363Z,632
2017-07-12T08:36:54.659Z,588
2017-07-12T08:38:04.252Z,560
2017-07-12T08:39:13.237Z,736
2017-07-12T08:40:22.196Z,740
2017-07-12T08:41:31.157Z,652
2017-07-12T08:42:41.072Z,552
2017-07-12T08:43:50.101Z,540
2017-07-12T08:44:59.067Z,512
2017-07-12T08:46:08.413Z,420
2017-07-12T08:47:17.380Z,384
2017-07-12T08:48:26.983Z,376
2017-07-12T08:49:35.949Z,344
2017-07-12T08:50:45.237Z,304
2017-07-12T08:51:54.215Z,292
2017-07-12T08:53:03.168Z,308
2017-07-12T08:54:12.135Z,336
2017-07-12T08:55:21.408Z,348
2017-07-12T08:56:30.064Z,360
2017-07-12T08:57:39.353Z,420
2017-07-12T08:58:48.003Z,484
2017-07-12T08:59:57.008Z,504
2017-07-12T09:01:05.663Z,608
2017-07-12T09:09:39.451Z,1204
2017-07-12T09:10:48.723Z,1220
2017-07-12T09:11:57.680Z,1172
2017-07-12T09:13:06.656Z,1036
2017-07-12T09:14:15.940Z,880
2017-07-12T09:15:24.917Z,828
2017-07-12T09:16:33.886Z,692
2017-07-12T09:17:42.869Z,612
2017-07-12T09:18:52.498Z,716
2017-07-12T09:20:01.491Z,796
2017-07-12T09:21:11.182Z,824
2017-07-12T09:22:20.154Z,948
2017-07-12T09:23:29.185Z,1136
2017-07-12T09:34:02.910Z,1028
2017-07-12T09:35:12.205Z,920
2017-07-12T09:36:21.232Z,824
2017-07-12T09:37:30.847Z,772
2017-07-12T09:38:39.966Z,812
2017-07-12T09:39:49.242Z,884
2017-07-12T09:40:58.840Z,780
2017-07-12T09:42:07.810Z,844
2017-07-12T09:43:16.781Z,1048
2017-07-12T09:44:25.770Z,956
2017-07-12T09:45:35.052Z,1068
2017-07-12T09:46:44.039Z,1140
2017-07-12T09:47:52.700Z,1212
2017-07-12T09:49:01.427Z,1104
2017-07-12T09:50:10.497Z,1104
2017-07-12T09:51:19.479Z,1260
2017-07-12T09:52:29.089Z,1416
2017-07-12T09:53:39.023Z,1376
2017-07-12T09:54:47.664Z,1228
2017-07-12T09:55:56.781Z,1496
2017-07-12T09:57:05.749Z,1236
2017-07-12T09:58:14.393Z,1260
2017-07-12T09:59:23.982Z,1088
2017-07-12T10:00:32.945Z,1140
2017-07-12T10:01:42.061Z,1556
2017-07-12T10:02:51.351Z,1240
2017-07-12T10:04:00.313Z,928
2017-07-12T10:05:09.278Z,944
2017-07-12T10:06:18.871Z,744
2017-07-12T10:07:27.983Z,1096
2017-07-12T10:08:37.597Z,1044
2017-07-12T10:09:46.568Z,972
2017-07-12T10:10:55.857Z,1424
2017-07-12T10:12:04.828Z,1500
2017-07-12T10:13:13.797Z,1628
2017-07-12T10:14:23.096Z,2060
2017-07-12T10:15:32.067Z,1692
2017-07-12T10:16:41.032Z,1624
2017-07-12T10:17:49.697Z,1976
2017-07-12T10:18:59.086Z,2196
2017-07-12T10:20:08.355Z,2352
2017-07-12T10:21:17.653Z,1736
2017-07-12T10:22:26.621Z,1576
2017-07-12T10:23:35.607Z,1568
2017-07-12T10:24:44.986Z,1520
2017-07-12T10:25:53.948Z,1428
2017-07-12T10:27:02.931Z,1496
2017-07-12T10:28:11.914Z,1324
2017-07-12T10:29:20.895Z,1508
2017-07-12T10:30:29.853Z,1204
2017-07-12T10:31:38.814Z,1244
2017-07-12T10:32:47.775Z,1108
2017-07-12T10:33:57.053Z,1004
2017-07-12T10:35:06.646Z,888
2017-07-12T10:36:15.665Z,1024
2017-07-12T10:37:24.941Z,1504
2017-07-12T10:38:33.904Z,1568
2017-07-12T10:39:42.557Z,1320
2017-07-12T10:40:51.851Z,1276
2017-07-12T10:42:00.647Z,1624
2017-07-12T10:43:10.231Z,1088
2017-07-12T10:44:19.530Z,1428
2017-07-12T10:45:28.174Z,1564
2017-07-12T10:46:37.131Z,1068
2017-07-12T10:47:46.397Z,984
2017-07-12T10:48:55.052Z,840
2017-07-12T10:50:04.023Z,960
2017-07-12T10:51:13.611Z,1040
2017-07-12T10:52:22.263Z,996
2017-07-12T10:53:31.381Z,1012
2017-07-12T10:54:40.338Z,888
2017-07-12T10:55:49.933Z,1228
2017-07-12T10:56:58.578Z,1020
2017-07-12T10:58:07.860Z,1000
2017-07-12T10:59:17.293Z,868
2017-07-12T11:00:25.959Z,1436
2017-07-12T11:01:35.265Z,2168
2017-07-12T11:02:45.173Z,2060
2017-07-12T11:03:54.447Z,2212
2017-07-12T11:05:03.718Z,2016
2017-07-12T11:06:12.684Z,2080
2017-07-12T11:07:21.961Z,1964
2017-07-12T11:08:31.249Z,1768
2017-07-12T11:09:39.903Z,2404
2017-07-12T11:10:49.327Z,2360
2017-07-12T11:11:58.601Z,2468
2017-07-12T11:13:07.253Z,2624
2017-07-12T11:14:16.216Z,2740
2017-07-12T11:15:24.864Z,2664
2017-07-12T11:16:34.143Z,2668
2017-07-12T11:17:43.429Z,2724
2017-07-12T11:18:52.707Z,2812
2017-07-12T11:20:01.672Z,3000
2017-07-12T11:21:10.323Z,3204
2017-07-12T11:22:19.425Z,3276
2017-07-12T11:23:28.385Z,3220
2017-07-12T11:24:37.027Z,3152
2017-07-12T11:25:46.301Z,3132
2017-07-12T11:29:27.456Z,2704
2017-07-12T11:30:36.734Z,2864
2017-07-12T11:31:46.391Z,3460
2017-07-12T11:32:55.041Z,2548
2017-07-12T11:34:03.689Z,3364
2017-07-12T11:35:13.433Z,2056
2017-07-12T11:36:22.399Z,3004
2017-07-12T11:37:31.045Z,2732
2017-07-12T11:38:40.005Z,2080
2017-07-12T11:39:48.967Z,1616
2017-07-12T11:40:58.547Z,1824
2017-07-12T11:44:39.558Z,1852
2017-07-12T11:48:21.838Z,2796
2017-07-12T11:52:03.168Z,1692
2017-07-12T11:53:12.192Z,1664
2017-07-12T11:54:21.154Z,1352
2017-07-12T11:58:04.311Z,1264
2017-07-12T11:59:13.602Z,1152
2017-07-12T12:00:22.885Z,1524
2017-07-12T12:01:32.154Z,1724
2017-07-12T12:02:41.129Z,1724
2017-07-12T12:03:50.717Z,1836
2017-07-12T12:04:59.701Z,1360
2017-07-12T12:06:09.301Z,1248
2017-07-12T12:07:19.528Z,976
2017-07-12T12:08:29.125Z,1980
2017-07-12T12:09:37.779Z,2192
2017-07-12T12:10:47.987Z,3108
2017-07-12T12:11:57.253Z,3504
2017-07-12T12:13:06.236Z,2468
2017-07-12T12:14:14.881Z,2348
2017-07-12T12:15:24.521Z,2040
2017-07-12T12:16:33.574Z,1228
2017-07-12T12:17:42.540Z,1304
2017-07-12T12:18:51.814Z,976
2017-07-12T12:20:00.833Z,464
2017-07-12T12:21:09.803Z,520
2017-07-12T12:22:18.867Z,424
2017-07-12T12:23:28.760Z,288
2017-07-12T12:24:37.796Z,280
2017-07-12T12:25:46.760Z,272
2017-07-12T12:26:56.032Z,472
2017-07-12T12:28:04.685Z,936
2017-07-12T12:29:13.659Z,1112
2017-07-12T12:30:22.935Z,1068
2017-07-12T12:31:32.215Z,868
2017-07-12T12:32:41.193Z,528
2017-07-12T12:33:50.935Z,264
2017-07-12T12:34:59.920Z,176
2017-07-12T12:36:08.881Z,208
2017-07-12T12:37:18.173Z,256
2017-07-12T12:38:27.765Z,296
2017-07-12T12:39:36.837Z,380
2017-07-12T12:40:45.809Z,492
2017-07-12T12:41:54.778Z,524
2017-07-12T12:43:03.742Z,452
2017-07-12T12:44:13.016Z,464
2017-07-12T12:45:21.823Z,668
2017-07-12T12:46:30.788Z,736
2017-07-12T12:47:40.058Z,648
2017-07-12T12:48:49.329Z,592
2017-07-12T12:49:58.283Z,524
2017-07-12T12:51:07.650Z,444
2017-07-12T12:52:17.554Z,380
2017-07-12T12:53:27.462Z,344
2017-07-12T12:54:36.113Z,332
2017-07-12T12:55:45.085Z,328
2017-07-12T12:56:54.836Z,328
2017-07-12T12:58:03.789Z,324
2017-07-12T12:59:12.745Z,328
2017-07-12T13:00:22.331Z,320
2017-07-12T13:01:31.283Z,296
2017-07-12T13:02:40.712Z,232
2017-07-12T13:03:50.291Z,224
2017-07-12T13:04:59.558Z,312
2017-07-12T13:06:09.148Z,360
2017-07-12T13:07:18.103Z,380
2017-07-12T13:08:27.163Z,336
2017-07-12T13:09:36.436Z,340
2017-07-12T13:10:46.032Z,348
2017-07-12T13:11:54.979Z,424
2017-07-12T13:13:03.945Z,372
2017-07-12T13:14:13.376Z,408
2017-07-12T13:15:22.651Z,404
2017-07-12T13:16:31.920Z,376
2017-07-12T13:17:40.872Z,424
2017-07-12T13:18:49.515Z,340
2017-07-12T13:19:58.633Z,348
2017-07-12T13:21:08.224Z,428
2017-07-12T13:22:17.241Z,360
2017-07-12T13:23:27.130Z,280
2017-07-12T13:24:36.406Z,240
2017-07-12T13:25:46.341Z,320
2017-07-12T13:26:55.635Z,328
2017-07-12T13:28:04.281Z,356
2017-07-12T13:29:13.237Z,312
2017-07-12T13:30:22.517Z,264
2017-07-12T13:31:31.944Z,316
2017-07-12T13:32:40.577Z,464
2017-07-12T13:33:50.163Z,532
2017-07-12T13:34:58.811Z,712
2017-07-12T13:36:08.081Z,732
2017-07-12T13:37:17.710Z,648
2017-07-12T13:38:26.356Z,712
2017-07-12T13:39:35.943Z,816
2017-07-12T13:40:44.906Z,888
2017-07-12T13:41:54.490Z,908
2017-07-12T13:43:03.513Z,948
2017-07-12T13:44:12.792Z,944
2017-07-12T13:45:22.067Z,1064
2017-07-12T13:46:31.031Z,1268
2017-07-12T13:47:40.320Z,1392
2017-07-12T13:48:49.120Z,1480
2017-07-12T13:49:58.077Z,1576
2017-07-12T13:51:07.347Z,1680
2017-07-12T13:52:16.618Z,1784
2017-07-12T13:53:26.230Z,1912
2017-07-12T13:54:35.350Z,2128
2017-07-12T13:55:43.985Z,2560
2017-07-12T13:56:53.259Z,2720
2017-07-12T13:58:02.537Z,2912
2017-07-12T13:59:12.120Z,3140
2017-07-12T14:00:21.849Z,3432
2017-07-12T14:01:31.121Z,3652
2017-07-12T14:02:40.090Z,3668
2017-07-12T14:03:49.049Z,3972
2017-07-12T14:04:58.333Z,3824
2017-07-12T14:06:07.374Z,3652
2017-07-12T14:07:16.332Z,3708
2017-07-12T14:08:25.285Z,3444
2017-07-12T14:09:34.242Z,3772
2017-07-12T14:10:42.879Z,3264
2017-07-12T14:11:51.850Z,3188
2017-07-12T14:13:00.496Z,2508
2017-07-12T14:14:09.169Z,2376
2017-07-12T14:15:18.762Z,1652
2017-07-12T14:16:28.676Z,1500
2017-07-12T14:17:38.110Z,1884
2017-07-12T14:18:47.390Z,2524
2017-07-12T14:19:56.971Z,2028
2017-07-12T14:21:05.936Z,1932
2017-07-12T14:22:14.961Z,940
2017-07-12T14:23:24.236Z,1136
2017-07-12T14:24:33.505Z,1440
2017-07-12T14:25:42.470Z,1900
2017-07-12T14:26:51.746Z,2688
2017-07-12T14:28:01.030Z,2816
2017-07-12T14:29:09.829Z,3144
2017-07-12T14:30:19.112Z,2648
2017-07-12T14:31:27.827Z,2268
2017-07-12T14:32:36.472Z,1720
2017-07-12T14:33:45.749Z,2484
2017-07-12T14:34:54.787Z,2024
2017-07-12T14:36:03.830Z,1952
2017-07-12T14:37:12.413Z,2020
2017-07-12T14:38:21.461Z,1156
2017-07-12T14:39:30.747Z,1092
2017-07-12T14:40:39.394Z,736
2017-07-12T14:41:48.670Z,752
2017-07-12T14:42:57.632Z,776
2017-07-12T14:44:06.591Z,828
2017-07-12T14:45:15.233Z,916
2017-07-12T14:46:24.824Z,1100
2017-07-12T14:47:34.718Z,980
2017-07-12T14:48:43.685Z,884
2017-07-12T14:49:52.645Z,900
2017-07-12T14:51:01.287Z,1104
2017-07-12T14:52:10.254Z,1556
2017-07-12T14:53:19.515Z,2064
2017-07-12T14:54:28.176Z,2728
2017-07-12T14:55:37.443Z,3016
2017-07-12T14:56:46.086Z,3068
2017-07-12T14:57:55.141Z,2604
2017-07-12T14:59:04.092Z,2448
2017-07-12T15:00:12.738Z,2484
2017-07-12T15:01:21.390Z,2492
2017-07-12T15:02:30.362Z,2248
2017-07-12T15:03:39.468Z,2136
2017-07-12T15:04:48.780Z,1964
2017-07-12T15:05:57.419Z,1868
2017-07-12T15:07:06.418Z,1808
2017-07-12T15:08:15.703Z,1732
2017-07-12T15:09:25.759Z,1688
2017-07-12T15:10:35.029Z,1968
2017-07-12T15:11:43.981Z,2248
2017-07-12T15:12:52.947Z,2340
2017-07-12T15:14:02.232Z,2348
2017-07-12T15:15:11.488Z,1940
2017-07-12T15:16:20.214Z,1476
2017-07-12T15:17:29.170Z,1772
2017-07-12T15:18:38.461Z,1908
2017-07-12T15:19:47.439Z,1912
2017-07-12T15:20:57.491Z,1836
2017-07-12T15:22:06.759Z,1984
2017-07-12T15:23:15.415Z,2148
2017-07-12T15:24:25.003Z,2292
2017-07-12T15:25:33.960Z,2308
2017-07-12T15:26:43.629Z,2256
2017-07-12T15:27:52.908Z,2228
2017-07-12T15:29:02.495Z,2136
2017-07-12T15:30:11.494Z,1760
2017-07-12T15:31:20.155Z,1312
2017-07-12T15:32:29.585Z,988
2017-07-12T15:33:38.249Z,1216
2017-07-12T15:34:47.535Z,1524
2017-07-12T15:35:56.820Z,1452
2017-07-12T15:37:06.105Z,1636
2017-07-12T15:38:15.068Z,1736
2017-07-12T15:39:23.708Z,2372
2017-07-12T15:40:32.672Z,2488
2017-07-12T15:41:41.647Z,2016
2017-07-12T15:42:50.614Z,1916
2017-07-12T15:43:59.926Z,2040
2017-07-12T15:45:09.514Z,2172
2017-07-12T15:46:18.531Z,1704
2017-07-12T15:47:27.481Z,1640
2017-07-12T15:48:37.071Z,1604
2017-07-12T15:49:46.120Z,1408
2017-07-12T15:50:55.415Z,1360
2017-07-12T15:52:04.377Z,1384
2017-07-12T15:53:13.654Z,996
2017-07-12T15:54:22.313Z,792
2017-07-12T15:55:31.008Z,512
2017-07-12T15:56:39.971Z,464
2017-07-12T15:57:49.264Z,620
2017-07-12T15:58:58.238Z,572
2017-07-12T16:00:07.515Z,584
2017-07-12T16:01:16.522Z,532
2017-07-12T16:02:25.159Z,824
2017-07-12T16:03:34.441Z,1116
2017-07-12T16:04:43.715Z,1204
2017-07-12T16:05:52.693Z,1252
2017-07-12T16:07:02.123Z,1268
2017-07-12T16:08:11.084Z,1196
2017-07-12T16:09:20.362Z,924
2017-07-12T16:10:29.014Z,740
2017-07-12T16:11:38.001Z,640
2017-07-12T16:12:47.588Z,664
2017-07-12T16:13:56.233Z,752
2017-07-12T16:15:04.874Z,896
2017-07-12T16:16:14.461Z,836
2017-07-12T16:17:23.739Z,964
2017-07-12T16:18:33.330Z,968
2017-07-12T16:19:42.284Z,1044
2017-07-12T16:20:51.571Z,1080
2017-07-12T16:22:00.524Z,1228
2017-07-12T16:23:10.108Z,1496
2017-07-12T16:24:19.379Z,1524
2017-07-12T16:25:28.017Z,1508
2017-07-12T16:26:37.294Z,1536